Airfield :
LOGIN :

Register | Disclaimer

   EN    FR    IT 

 










Legend :    VFR   Marginal VFR   IFR   Intensive IFR   Very Intensive IFR
Visi :
Ceiling :
>= 8 km
>= 3000ft
5 to 8 km
1000 to 3000 ft
1500m to 5 km
500 to 1000 ft
800 to 1500m
200 to 500 ft
< 800m
< 200 ft
Symbols :   Thunderstorms  Fog  Heavy snow  Heavy precipitations  Wind > 20 kt
SIGMETs :     Misc.  Thunderstorms  Icing  Turbulence  Mountain Waves  Volcanic Ashes






- Airport Elevation : 160 ft
- IATA code : FMO


EDDG - Münster Osnabrück Int.

CURRENT METAR :
  • 270220Z 12005KT 060V170 2500 BR BKN004 10/10 Q0994 TEMPO BKN006

EXPIRED METARs :
  • 270150Z 12006KT 050V190 2000 -RADZ BR BKN003 10/10 Q0993 TEMPO BKN006
  • 270120Z 13006KT 070V170 3500 -RADZ BR BKN003 BKN008 11/11 Q0993 TEMPO BKN006
  • 270050Z 15003KT 100V220 4500 -RADZ BR FEW004 BKN006 BKN010 12/12 Q0992 TEMPO 6000
  • 270020Z 24003KT 2000 -RADZ BR BKN005 BKN010 12/12 Q0992 TEMPO 4000
  • 262350Z 28005KT 2500 -RADZ BR BKN005 12/12 Q0992 TEMPO 4000

TAF TAF EDDG
Valid from the 27 at 00:00 until the 28 at 00:00 UTC


262300Z 2700/2724 27009KT 6000 BKN010
BECMG 2700/2703 17006KT
TEMPO 2700/2707 2000 -DZRA BR OVC004
BECMG 2704/2707 09006KT
BECMG 2707/2710 SCT015 BKN030
BECMG 2715/2718 VRB03KT
TEMPO 2720/2724 4000 RA BKN012



MET'MAP, your aeronautical weather chart ! - Copyright ORBIFLY December 2007 - Disclaimer

ORBIFLY MET'MAP TEAM :

Programming & Development : Alexandra Zaïnal
Concept & original design : Baudouin d'Aumeries
Assistance for programming : Marc-Olivier Méhu
Technical & hardware support : Manuel Goepfert

Contact : metmap@orbifly.com




SOURCES & CREDITS :

   NOAA